Terminal Aerodrome Forecast
Issued by NWS

Home | Current Version | Previous Version | Graphics & Text | Print | Product List | Glossary On
Versions: 1 2 3 4 5 6 7 8 9 10 11 12 13 14 15 16 17 18 19 20 21 22 23 24 25 26 27 28 29 30 31 32 33
000
FTUS43 KLOT 201000 AAB
TAFMDW
TAF AMD
KMDW 201050Z 2011/2106 22010KT P6SM VCSH BKN070
     FM201130 25008KT P6SM SCT070
     FM201300 28009KT P6SM SCT035
     FM201700 33010KT P6SM BKN035
     FM202300 01007KT P6SM OVC035
     FM210400 35008KT P6SM BKN035=

USA.gov is the U.S. government's official web portal to all federal, state and local government web resources and services.